createdAt,value
2018-06-02T00:01:51.229Z,43.9
2018-06-02T00:06:49.241Z,43.8
2018-06-02T00:11:47.270Z,43.8
2018-06-02T00:16:45.265Z,43.9
2018-06-02T00:21:43.157Z,43.6
2018-06-02T00:26:41.006Z,43.4
2018-06-02T00:31:38.874Z,43.1
2018-06-02T00:36:36.707Z,43.2
2018-06-02T00:41:34.668Z,43.3
2018-06-02T00:46:32.569Z,43.3
2018-06-02T00:51:30.102Z,43.4
2018-06-02T00:56:27.846Z,43.4
2018-06-02T01:01:25.748Z,43.5
2018-06-02T01:06:23.596Z,43.5
2018-06-02T01:11:21.592Z,43.5
2018-06-02T01:16:19.476Z,43.5
2018-06-02T01:21:17.475Z,43.6
2018-06-02T01:26:15.101Z,43.6
2018-06-02T01:31:12.988Z,43.6
2018-06-02T01:36:10.839Z,43.8
2018-06-02T01:41:08.801Z,43.9
2018-06-02T01:46:06.485Z,43.9
2018-06-02T01:51:04.368Z,43.9
2018-06-02T01:56:01.676Z,43.9
2018-06-02T02:00:59.342Z,43.9
2018-06-02T02:05:57.173Z,43.9
2018-06-02T02:10:55.004Z,43.9
2018-06-02T02:15:52.341Z,43.9
2018-06-02T02:20:49.543Z,44
2018-06-02T02:25:47.444Z,44.1
2018-06-02T02:30:45.417Z,44.1
2018-06-02T02:35:43.268Z,44.1
2018-06-02T02:40:41.147Z,44.2
2018-06-02T02:45:39.128Z,44.3
2018-06-02T02:50:37.113Z,44.3
2018-06-02T02:55:34.461Z,44.3
2018-06-02T03:00:32.447Z,44.5
2018-06-02T03:05:30.464Z,44.4
2018-06-02T03:10:28.572Z,44.4
2018-06-02T03:15:26.618Z,44.4
2018-06-02T03:20:24.544Z,44.5
2018-06-02T03:25:22.696Z,44.5
2018-06-02T03:30:20.575Z,44.5
2018-06-02T03:35:18.548Z,44.7
2018-06-02T03:40:16.410Z,44.8
2018-06-02T03:45:14.440Z,44.9
2018-06-02T03:50:12.412Z,44.9
2018-06-02T03:55:10.439Z,45
2018-06-02T04:00:08.391Z,45
2018-06-02T04:05:06.447Z,45.1
2018-06-02T04:10:04.390Z,45.2
2018-06-02T04:15:01.733Z,45.6
2018-06-02T04:19:59.659Z,45.7
2018-06-02T04:24:57.253Z,45.9
2018-06-02T04:29:55.024Z,46
2018-06-02T04:34:53.249Z,46.2
2018-06-02T04:39:51.216Z,46.2
2018-06-02T04:44:49.097Z,46.4
2018-06-02T04:49:46.724Z,46.4
2018-06-02T04:54:46.824Z,44.6
2018-06-02T04:59:44.522Z,43.7
2018-06-02T05:04:42.336Z,43.3
2018-06-02T05:09:40.018Z,43.4
2018-06-02T05:14:38.046Z,43.8
2018-06-02T05:19:36.165Z,43.6
2018-06-02T05:24:34.071Z,43.5
2018-06-02T05:29:31.726Z,43.9
2018-06-02T05:34:29.669Z,44.5
2018-06-02T05:39:27.493Z,44.6
2018-06-02T05:44:25.252Z,44.4
2018-06-02T05:49:23.056Z,44.4
2018-06-02T05:54:21.182Z,44.4
2018-06-02T05:59:18.929Z,44.2
2018-06-02T06:04:16.948Z,44.2
2018-06-02T06:09:14.801Z,44.2
2018-06-02T06:14:12.185Z,44.7
2018-06-02T06:19:10.339Z,44.6
2018-06-02T06:24:08.402Z,44.9
2018-06-02T06:29:06.550Z,44.9
2018-06-02T06:34:04.873Z,45.1
2018-06-02T06:39:02.830Z,45
2018-06-02T06:44:00.806Z,45.1
2018-06-02T06:48:58.919Z,45.2
2018-06-02T06:53:57.088Z,45.8
2018-06-02T06:58:55.809Z,46
2018-06-02T07:03:53.807Z,46.1
2018-06-02T07:08:51.789Z,45.8
2018-06-02T07:13:49.725Z,45.9
2018-06-02T07:18:47.796Z,46.2
2018-06-02T07:23:45.865Z,46.4
2018-06-02T07:28:44.677Z,46.1
2018-06-02T07:33:42.883Z,45.8
2018-06-02T07:38:40.738Z,45.7
2018-06-02T07:43:38.883Z,46.4
2018-06-02T07:48:36.860Z,46.4
2018-06-02T07:53:34.852Z,45.8
2018-06-02T07:58:33.288Z,45.7
2018-06-02T08:03:31.585Z,45.3
2018-06-02T08:08:30.035Z,45.2
2018-06-02T08:13:27.683Z,45.2
2018-06-02T08:18:25.306Z,44.2
2018-06-02T08:23:23.371Z,44.1
2018-06-02T08:28:23.430Z,44
2018-06-02T08:33:21.433Z,44.2
2018-06-02T08:38:19.805Z,44.3
2018-06-02T08:43:17.721Z,44.1
2018-06-02T08:48:15.615Z,43.9
2018-06-02T08:53:13.797Z,43.9
2018-06-02T08:58:11.701Z,44.1
2018-06-02T09:03:09.739Z,44.2
2018-06-02T09:08:08.041Z,44.1
2018-06-02T09:13:05.903Z,43.7
2018-06-02T09:18:04.175Z,43.7
2018-06-02T09:23:02.426Z,43.9
2018-06-02T09:28:00.675Z,43.8
2018-06-02T09:32:58.849Z,43.8
2018-06-02T09:37:57.151Z,44.1
2018-06-02T09:42:55.187Z,43.7
2018-06-02T09:47:53.428Z,42.2
2018-06-02T09:52:51.879Z,41.1
2018-06-02T09:57:50.315Z,40.6
2018-06-02T10:02:48.139Z,39.9
2018-06-02T10:07:46.014Z,39.8
2018-06-02T10:12:43.928Z,39.4
2018-06-02T10:17:41.921Z,39.3
2018-06-02T10:22:39.263Z,38.6
2018-06-02T10:27:36.970Z,38.3
2018-06-02T10:32:35.004Z,37.9
2018-06-02T10:37:33.092Z,36.7
2018-06-02T10:42:31.293Z,36.6
2018-06-02T10:47:29.035Z,36.5
2018-06-02T10:52:27.400Z,36.9
2018-06-02T10:57:25.540Z,36.3
2018-06-02T11:02:23.876Z,36.2
2018-06-02T11:07:22.086Z,35.8
2018-06-02T11:12:20.149Z,36.3
2018-06-02T11:17:18.213Z,36
2018-06-02T11:22:15.929Z,35.8
2018-06-02T11:27:14.289Z,34.6
2018-06-02T11:32:12.834Z,33.2
2018-06-02T11:37:10.776Z,33.7
2018-06-02T11:42:08.954Z,33.2
2018-06-02T11:47:07.406Z,33.7
2018-06-02T11:52:05.601Z,34.4
2018-06-02T11:57:04.131Z,33.7
2018-06-02T12:02:02.630Z,34.1
2018-06-02T12:07:00.790Z,34.2
2018-06-02T12:11:59.132Z,34.1
2018-06-02T12:16:57.384Z,33.5
2018-06-02T12:21:56.404Z,33.5
2018-06-02T12:26:54.916Z,33.5
2018-06-02T12:31:52.945Z,33.1
2018-06-02T12:36:51.455Z,33.2
2018-06-02T12:41:49.504Z,33
2018-06-02T12:46:47.866Z,32.7
2018-06-02T12:51:46.005Z,33.4
2018-06-02T12:56:44.464Z,33.7
2018-06-02T13:01:42.273Z,33.9
2018-06-02T13:06:42.449Z,33.9
2018-06-02T13:11:40.507Z,33.9
2018-06-02T13:16:38.987Z,34.2
2018-06-02T13:21:37.138Z,34.6
2018-06-02T13:26:35.183Z,35.1
2018-06-02T13:31:32.884Z,35.3
2018-06-02T13:36:30.891Z,35.5
2018-06-02T13:41:28.803Z,36
2018-06-02T13:46:26.846Z,36
2018-06-02T13:51:24.447Z,35.7
2018-06-02T13:56:22.757Z,35.5
2018-06-02T14:01:20.999Z,35.7
2018-06-02T14:06:19.117Z,35.9
2018-06-02T14:11:17.309Z,36
2018-06-02T14:16:17.598Z,35.7
2018-06-02T14:21:15.092Z,35.6
2018-06-02T14:26:12.957Z,35.2
2018-06-02T14:31:11.318Z,35.4
2018-06-02T14:36:09.484Z,35.2
2018-06-02T14:41:08.602Z,35
2018-06-02T14:46:05.807Z,35
2018-06-02T14:51:03.421Z,35.3
2018-06-02T14:56:01.530Z,35.7
2018-06-02T15:00:59.765Z,36
2018-06-02T15:05:58.149Z,36.2
2018-06-02T15:10:56.002Z,36
2018-06-02T15:15:54.090Z,36.1
2018-06-02T15:20:52.720Z,36.9
2018-06-02T15:25:50.808Z,37
2018-06-02T15:30:48.731Z,36.9
2018-06-02T15:35:46.769Z,36.1
2018-06-02T15:40:45.326Z,36.3
2018-06-02T15:45:43.327Z,36.8
2018-06-02T15:50:41.694Z,37.2
2018-06-02T15:55:40.053Z,37.5
2018-06-02T16:00:38.178Z,37.7
2018-06-02T16:05:35.849Z,37.8
2018-06-02T16:10:33.465Z,38.3
2018-06-02T16:15:31.395Z,38.4
2018-06-02T16:20:29.370Z,38.9
2018-06-02T16:25:27.394Z,39.2
2018-06-02T16:30:25.368Z,39.4
2018-06-02T16:35:23.284Z,39.5
2018-06-02T16:40:20.765Z,39.2
2018-06-02T16:45:19.175Z,38.9
2018-06-02T16:50:17.248Z,38.5
2018-06-02T16:55:15.182Z,38.4
2018-06-02T17:00:13.626Z,38.2
2018-06-02T17:05:12.005Z,39
2018-06-02T17:10:10.278Z,38.6
2018-06-02T17:15:08.368Z,37.9
2018-06-02T17:20:06.309Z,37.7
2018-06-02T17:25:04.219Z,37.5
2018-06-02T17:30:02.202Z,37.2
2018-06-02T17:34:59.979Z,36.9
2018-06-02T17:39:57.338Z,36.8
2018-06-02T17:44:55.240Z,36.7
2018-06-02T17:49:53.009Z,36.7
2018-06-02T17:54:50.972Z,36.7
2018-06-02T17:59:48.731Z,36.9
2018-06-02T18:04:46.472Z,36.8
2018-06-02T18:09:44.667Z,36.6
2018-06-02T18:14:42.712Z,37.6
2018-06-02T18:19:40.160Z,37.7
2018-06-02T18:24:38.464Z,37.4
2018-06-02T18:29:36.908Z,37.4
2018-06-02T18:34:35.199Z,37.1
2018-06-02T18:39:37.405Z,37.4
2018-06-02T18:44:36.593Z,37.4
2018-06-02T18:49:38.665Z,37.4
2018-06-02T18:54:41.935Z,37.6
2018-06-02T18:59:38.573Z,37.8
2018-06-02T19:04:36.411Z,37.7
2018-06-02T19:09:34.382Z,37.8
2018-06-02T19:14:32.787Z,38.2
2018-06-02T19:19:30.985Z,38.9
2018-06-02T19:24:29.138Z,39.2
2018-06-02T19:29:27.113Z,39.6
2018-06-02T19:34:24.921Z,39.7
2018-06-02T19:39:22.320Z,39.8
2018-06-02T19:44:21.550Z,39.8
2018-06-02T19:49:19.805Z,39.9
2018-06-02T19:54:17.974Z,40
2018-06-02T19:59:16.210Z,40
2018-06-02T20:04:13.797Z,40.1
2018-06-02T20:09:11.966Z,40.2
2018-06-02T20:14:09.984Z,40.3
2018-06-02T20:19:07.882Z,40.4
2018-06-02T20:24:05.914Z,40.4
2018-06-02T20:29:03.932Z,40.5
2018-06-02T20:34:02.770Z,40.4
2018-06-02T20:39:01.682Z,40.4
2018-06-02T20:43:59.883Z,40.6
2018-06-02T20:48:57.829Z,40.7
2018-06-02T20:53:55.732Z,40.8
2018-06-02T20:58:52.959Z,40.9
2018-06-02T21:03:50.952Z,41
2018-06-02T21:08:49.073Z,41
2018-06-02T21:13:47.102Z,41.2
2018-06-02T21:18:45.001Z,41.3
2018-06-02T21:23:43.068Z,41.4
2018-06-02T21:28:40.969Z,41.5
2018-06-02T21:33:38.842Z,41.6
2018-06-02T21:38:36.842Z,41.6
2018-06-02T21:43:34.696Z,41.7
2018-06-02T21:48:32.623Z,41.8
2018-06-02T21:53:30.365Z,41.8
2018-06-02T21:58:28.357Z,42
2018-06-02T22:03:26.581Z,42.1
2018-06-02T22:08:24.546Z,42.2
2018-06-02T22:13:22.640Z,42.3
2018-06-02T22:18:20.559Z,42.2
2018-06-02T22:23:18.218Z,42.2
2018-06-02T22:28:16.015Z,42.1
2018-06-02T22:33:13.922Z,42.1
2018-06-02T22:38:11.615Z,42.1
2018-06-02T22:43:09.610Z,42.1
2018-06-02T22:48:07.563Z,42.1
2018-06-02T22:53:05.417Z,42.1
2018-06-02T22:58:03.491Z,42.2
2018-06-02T23:03:01.375Z,42.3
2018-06-02T23:07:59.615Z,42.4
2018-06-02T23:12:57.565Z,42.4
2018-06-02T23:17:55.752Z,42.4
2018-06-02T23:22:53.756Z,42.5
2018-06-02T23:27:51.602Z,42.6
2018-06-02T23:32:49.054Z,42.6
2018-06-02T23:37:46.847Z,42.6
2018-06-02T23:42:44.755Z,42.6
2018-06-02T23:47:42.979Z,42.7
2018-06-02T23:52:40.874Z,42.6
2018-06-02T23:57:38.840Z,42.6
